createdAt,value
2018-11-13T00:00:20.130Z,0
2018-11-13T00:01:29.562Z,0
2018-11-13T00:02:39.503Z,0
2018-11-13T00:03:48.934Z,0
2018-11-13T00:04:58.883Z,0
2018-11-13T00:06:08.817Z,0
2018-11-13T00:07:18.271Z,0
2018-11-13T00:08:27.704Z,0
2018-11-13T00:09:37.660Z,0
2018-11-13T00:10:47.609Z,0
2018-11-13T00:11:57.554Z,0
2018-11-13T00:13:07.490Z,0
2018-11-13T00:14:17.435Z,0
2018-11-13T00:15:27.400Z,0
2018-11-13T00:16:37.339Z,0
2018-11-13T00:17:46.777Z,0
2018-11-13T00:18:56.723Z,0
2018-11-13T00:20:06.408Z,0
2018-11-13T00:21:16.363Z,0
2018-11-13T00:22:26.045Z,0
2018-11-13T00:23:36.000Z,0
2018-11-13T00:24:45.687Z,0
2018-11-13T00:25:55.647Z,0
2018-11-13T00:27:05.325Z,0
2018-11-13T00:28:15.013Z,0
2018-11-13T00:29:25.132Z,0
2018-11-13T00:30:34.700Z,0
2018-11-13T00:31:44.652Z,0
2018-11-13T00:32:54.346Z,0
2018-11-13T00:34:04.287Z,0
2018-11-13T00:35:13.982Z,0
2018-11-13T00:36:23.931Z,0
2018-11-13T00:37:33.869Z,0
2018-11-13T00:38:43.575Z,0
2018-11-13T00:39:53.154Z,0
2018-11-13T00:41:02.859Z,0
2018-11-13T00:42:12.992Z,0
2018-11-13T00:43:22.673Z,0
2018-11-13T00:44:32.365Z,0
2018-11-13T00:45:42.528Z,0
2018-11-13T00:46:52.320Z,0
2018-11-13T00:48:01.756Z,0
2018-11-13T00:49:11.716Z,0
2018-11-13T00:50:21.672Z,0
2018-11-13T00:51:31.635Z,0
2018-11-13T00:52:41.587Z,0
2018-11-13T00:53:51.272Z,0
2018-11-13T00:55:01.266Z,0
2018-11-13T00:56:11.829Z,0
2018-11-13T00:57:21.541Z,0
2018-11-13T00:58:30.972Z,0
2018-11-13T00:59:40.913Z,0
2018-11-13T01:00:50.587Z,0
2018-11-13T01:02:01.097Z,0
2018-11-13T01:03:10.895Z,0
2018-11-13T01:04:20.851Z,0
2018-11-13T01:05:31.506Z,0
2018-11-13T01:06:41.753Z,0
2018-11-13T01:07:52.516Z,0
2018-11-13T01:09:02.462Z,0
2018-11-13T01:10:12.420Z,0
2018-11-13T01:11:22.376Z,0
2018-11-13T01:12:32.328Z,0
2018-11-13T01:13:42.004Z,0
2018-11-13T01:14:52.029Z,0
2018-11-13T01:16:01.805Z,0
2018-11-13T01:17:11.260Z,0
2018-11-13T01:18:20.187Z,0
2018-11-13T01:19:29.610Z,0
2018-11-13T01:20:39.050Z,0
2018-11-13T01:21:49.039Z,0
2018-11-13T01:22:58.220Z,0
2018-11-13T01:24:08.797Z,0
2018-11-13T01:25:18.508Z,0
2018-11-13T01:26:28.209Z,0
2018-11-13T01:27:37.909Z,0
2018-11-13T01:28:47.343Z,0
2018-11-13T01:29:57.039Z,0
2018-11-13T01:31:06.758Z,0
2018-11-13T01:32:16.445Z,0
2018-11-13T01:33:25.877Z,0
2018-11-13T01:34:35.293Z,0
2018-11-13T01:35:44.722Z,0
2018-11-13T01:36:54.416Z,0
2018-11-13T01:38:04.365Z,0
2018-11-13T01:39:14.075Z,0
2018-11-13T01:40:23.796Z,0
2018-11-13T01:41:33.845Z,0
2018-11-13T01:42:43.311Z,0
2018-11-13T01:43:52.747Z,0
2018-11-13T01:45:01.920Z,0
2018-11-13T01:46:11.602Z,0
2018-11-13T01:47:21.312Z,0
2018-11-13T01:48:31.260Z,0
2018-11-13T01:49:42.122Z,0
2018-11-13T01:50:52.295Z,0
2018-11-13T01:52:02.252Z,0
2018-11-13T01:53:12.196Z,0
2018-11-13T01:54:22.314Z,0
2018-11-13T01:55:31.787Z,0
2018-11-13T01:56:41.484Z,0
2018-11-13T01:57:51.443Z,0
2018-11-13T01:59:00.608Z,0
2018-11-13T02:00:10.318Z,0
2018-11-13T02:01:20.011Z,0
2018-11-13T02:02:29.964Z,0
2018-11-13T02:03:39.645Z,0
2018-11-13T02:04:49.075Z,0
2018-11-13T02:05:58.503Z,0
2018-11-13T02:07:08.470Z,0
2018-11-13T02:08:18.471Z,0
2018-11-13T02:09:27.652Z,0
2018-11-13T02:10:37.337Z,0
2018-11-13T02:11:47.281Z,0
2018-11-13T02:12:56.970Z,0
2018-11-13T02:14:06.915Z,0
2018-11-13T02:15:16.609Z,0
2018-11-13T02:16:26.546Z,0
2018-11-13T02:17:36.230Z,0
2018-11-13T02:18:46.203Z,0
2018-11-13T02:19:55.376Z,0
2018-11-13T02:21:04.812Z,0
2018-11-13T02:22:14.506Z,0
2018-11-13T02:23:24.459Z,0
2018-11-13T02:24:33.886Z,0
2018-11-13T02:25:43.844Z,0
2018-11-13T02:26:53.529Z,0
2018-11-13T02:28:03.215Z,0
2018-11-13T02:29:12.908Z,0
2018-11-13T02:30:22.345Z,0
2018-11-13T02:31:32.048Z,0
2018-11-13T02:32:42.000Z,0
2018-11-13T02:33:51.967Z,0
2018-11-13T02:35:01.394Z,0
2018-11-13T02:36:10.845Z,0
2018-11-13T02:37:20.536Z,0
2018-11-13T02:38:30.234Z,0
2018-11-13T02:39:39.658Z,0
2018-11-13T02:40:49.348Z,0
2018-11-13T02:41:59.316Z,0
2018-11-13T02:43:09.010Z,0
2018-11-13T02:44:18.444Z,0
2018-11-13T02:45:28.407Z,0
2018-11-13T02:46:38.103Z,0
2018-11-13T02:47:48.137Z,0
2018-11-13T02:48:59.923Z,0
2018-11-13T02:50:10.123Z,0
2018-11-13T02:51:19.811Z,0
2018-11-13T02:52:29.758Z,0
2018-11-13T02:53:39.732Z,0
2018-11-13T02:54:49.687Z,0
2018-11-13T02:55:59.375Z,0
2018-11-13T02:57:09.057Z,0
2018-11-13T02:58:18.487Z,0
2018-11-13T02:59:28.181Z,0
2018-11-13T03:00:38.123Z,0
2018-11-13T03:01:47.561Z,0
2018-11-13T03:02:57.250Z,0
2018-11-13T03:04:07.205Z,0
2018-11-13T03:05:16.887Z,0
2018-11-13T03:06:26.847Z,0
2018-11-13T03:07:36.777Z,0
2018-11-13T03:08:46.224Z,0
2018-11-13T03:09:55.656Z,0
2018-11-13T03:11:05.614Z,0
2018-11-13T03:12:15.296Z,0
2018-11-13T03:13:24.978Z,0
2018-11-13T03:14:34.765Z,0
2018-11-13T03:15:44.464Z,0
2018-11-13T03:16:54.409Z,0
2018-11-13T03:18:04.361Z,0
2018-11-13T03:19:14.063Z,0
2018-11-13T03:20:23.557Z,0
2018-11-13T03:21:33.240Z,0
2018-11-13T03:22:43.187Z,0
2018-11-13T03:23:53.163Z,0
2018-11-13T03:25:02.610Z,0
2018-11-13T03:26:11.824Z,0
2018-11-13T03:27:21.246Z,0
2018-11-13T03:28:30.948Z,0
2018-11-13T03:29:40.892Z,0
2018-11-13T03:30:50.876Z,0
2018-11-13T03:32:00.581Z,0
2018-11-13T03:33:09.813Z,0
2018-11-13T03:34:19.794Z,0
2018-11-13T03:35:29.756Z,0
2018-11-13T03:36:39.723Z,0
2018-11-13T03:37:49.669Z,0
2018-11-13T03:38:59.618Z,0
2018-11-13T03:40:09.314Z,0
2018-11-13T03:41:19.249Z,0
2018-11-13T03:42:28.949Z,0
2018-11-13T03:43:38.640Z,0
2018-11-13T03:44:48.605Z,0
2018-11-13T03:45:58.294Z,0
2018-11-13T03:47:07.983Z,0
2018-11-13T03:48:17.676Z,0
2018-11-13T03:49:27.107Z,0
2018-11-13T03:50:37.055Z,0
2018-11-13T03:51:47.004Z,0
2018-11-13T03:52:56.705Z,0
2018-11-13T03:54:06.418Z,0
2018-11-13T03:55:16.394Z,0
2018-11-13T03:56:25.818Z,0
2018-11-13T03:57:35.768Z,0
2018-11-13T03:58:45.713Z,0
2018-11-13T03:59:55.654Z,0
2018-11-13T04:01:05.607Z,0
2018-11-13T04:02:15.542Z,0
2018-11-13T04:03:24.719Z,0
2018-11-13T04:04:34.402Z,0
2018-11-13T04:05:44.083Z,0
2018-11-13T04:06:53.758Z,0
2018-11-13T04:08:03.443Z,0
2018-11-13T04:09:13.125Z,0
2018-11-13T04:10:22.836Z,0
2018-11-13T04:11:32.531Z,0
2018-11-13T04:12:42.229Z,0
2018-11-13T04:13:51.918Z,0
2018-11-13T04:15:00.832Z,0
2018-11-13T04:16:10.781Z,0
2018-11-13T04:17:20.489Z,0
2018-11-13T04:18:29.919Z,0
2018-11-13T04:19:39.876Z,0
2018-11-13T04:20:49.564Z,0
2018-11-13T04:21:59.540Z,0
2018-11-13T04:23:09.526Z,0
2018-11-13T04:24:19.542Z,0
2018-11-13T04:25:29.527Z,0
2018-11-13T04:26:39.488Z,0
2018-11-13T04:27:49.454Z,0
2018-11-13T04:28:59.406Z,0
2018-11-13T04:30:09.371Z,0
2018-11-13T04:31:19.314Z,0
2018-11-13T04:32:28.750Z,0
2018-11-13T04:33:38.442Z,0
2018-11-13T04:34:47.883Z,0
2018-11-13T04:35:57.820Z,0
2018-11-13T04:37:07.513Z,0
2018-11-13T04:38:17.209Z,0
2018-11-13T04:39:26.894Z,0
2018-11-13T04:40:36.592Z,0
2018-11-13T04:41:46.279Z,0
2018-11-13T04:42:56.013Z,0
2018-11-13T04:44:05.699Z,0
2018-11-13T04:45:15.636Z,0
2018-11-13T04:46:25.590Z,0
2018-11-13T04:47:35.301Z,0
2018-11-13T04:48:44.737Z,0
2018-11-13T04:49:54.437Z,0
2018-11-13T04:51:04.384Z,0
2018-11-13T04:52:13.821Z,0
2018-11-13T04:53:23.536Z,0
2018-11-13T04:54:33.224Z,0
2018-11-13T04:55:42.920Z,0
2018-11-13T04:56:52.883Z,0
2018-11-13T04:58:02.595Z,0
2018-11-13T04:59:12.553Z,0
2018-11-13T05:00:22.264Z,0
2018-11-13T05:01:32.214Z,0
2018-11-13T05:02:41.951Z,0
2018-11-13T05:03:51.799Z,0
2018-11-13T05:05:01.512Z,0
2018-11-13T05:06:11.214Z,0
2018-11-13T05:07:20.902Z,0
2018-11-13T05:08:29.827Z,0
2018-11-13T05:09:39.774Z,0
2018-11-13T05:10:49.732Z,0
2018-11-13T05:11:59.433Z,0
2018-11-13T05:13:09.369Z,0
2018-11-13T05:14:19.318Z,0
2018-11-13T05:15:29.267Z,0
2018-11-13T05:16:39.274Z,0
2018-11-13T05:17:48.987Z,0
2018-11-13T05:18:58.665Z,0
2018-11-13T05:20:08.108Z,0
2018-11-13T05:21:18.078Z,0
2018-11-13T05:22:28.017Z,0
2018-11-13T05:23:37.709Z,0
2018-11-13T05:24:47.663Z,0
2018-11-13T05:25:57.106Z,0
2018-11-13T05:27:06.792Z,0
2018-11-13T05:28:16.228Z,0
2018-11-13T05:29:25.426Z,0
2018-11-13T05:30:35.368Z,0
2018-11-13T05:31:45.128Z,0
2018-11-13T05:32:55.089Z,0
2018-11-13T05:34:05.036Z,0
2018-11-13T05:35:15.004Z,0
2018-11-13T05:36:24.950Z,0
2018-11-13T05:37:34.396Z,0
2018-11-13T05:38:44.346Z,0
2018-11-13T05:39:53.526Z,0
2018-11-13T05:41:03.222Z,0
2018-11-13T05:42:12.907Z,0
2018-11-13T05:43:22.607Z,0
2018-11-13T05:44:32.302Z,0
2018-11-13T05:45:41.991Z,0
2018-11-13T05:46:51.161Z,0
2018-11-13T05:48:01.100Z,0
2018-11-13T05:49:10.791Z,0
2018-11-13T05:50:20.231Z,0
2018-11-13T05:51:29.665Z,0
2018-11-13T05:52:39.108Z,0
2018-11-13T05:53:49.045Z,0
2018-11-13T05:54:58.748Z,0
2018-11-13T05:56:08.179Z,0
2018-11-13T05:57:18.148Z,0
2018-11-13T05:58:27.587Z,0
2018-11-13T05:59:37.729Z,0
2018-11-13T06:00:47.746Z,4
2018-11-13T06:01:57.697Z,4
2018-11-13T06:03:07.648Z,4
2018-11-13T06:04:17.128Z,4
2018-11-13T06:05:26.813Z,4
2018-11-13T06:06:36.246Z,4
2018-11-13T06:07:45.668Z,8
2018-11-13T06:08:55.100Z,16
2018-11-13T06:10:04.533Z,24
2018-11-13T06:11:13.704Z,28
2018-11-13T06:12:23.404Z,24
2018-11-13T06:13:33.355Z,20
2018-11-13T06:14:42.552Z,16
2018-11-13T06:15:52.243Z,16
2018-11-13T06:17:01.933Z,24
2018-11-13T06:18:12.207Z,36
2018-11-13T06:19:22.422Z,48
2018-11-13T06:20:32.375Z,52
2018-11-13T06:21:41.803Z,52
2018-11-13T06:22:51.367Z,52
2018-11-13T06:24:01.473Z,44
2018-11-13T06:25:11.447Z,40
2018-11-13T06:26:21.396Z,40
2018-11-13T06:27:31.348Z,48
2018-11-13T06:28:41.187Z,64
2018-11-13T06:29:51.285Z,72
2018-11-13T06:31:00.970Z,64
2018-11-13T06:32:10.939Z,44
2018-11-13T06:33:20.620Z,48
2018-11-13T06:34:30.046Z,60
2018-11-13T06:35:39.229Z,88
2018-11-13T06:36:49.190Z,116
2018-11-13T06:37:59.139Z,140
2018-11-13T06:39:09.088Z,164
2018-11-13T06:40:18.771Z,172
2018-11-13T06:41:28.737Z,176
2018-11-13T06:42:38.686Z,184
2018-11-13T06:43:48.115Z,180
2018-11-13T06:44:57.555Z,176
2018-11-13T06:46:07.516Z,188
2018-11-13T06:47:17.471Z,200
2018-11-13T06:48:27.172Z,212
2018-11-13T06:49:37.043Z,196
2018-11-13T06:50:47.256Z,172
2018-11-13T06:51:56.426Z,192
2018-11-13T06:53:06.112Z,252
2018-11-13T06:54:15.814Z,312
2018-11-13T06:55:25.506Z,348
2018-11-13T06:56:34.950Z,396
2018-11-13T06:57:44.652Z,360
2018-11-13T06:58:54.645Z,316
2018-11-13T07:00:04.615Z,360
2018-11-13T07:01:14.311Z,488
2018-11-13T07:02:24.000Z,652
2018-11-13T07:03:33.968Z,872
2018-11-13T07:04:44.032Z,880
2018-11-13T07:05:53.317Z,732
2018-11-13T07:07:03.477Z,568
2018-11-13T07:08:13.182Z,444
2018-11-13T07:09:22.616Z,364
2018-11-13T07:10:32.125Z,360
2018-11-13T07:11:41.819Z,400
2018-11-13T07:12:51.278Z,452
2018-11-13T07:14:00.995Z,492
2018-11-13T07:15:10.957Z,524
2018-11-13T07:16:20.400Z,576
2018-11-13T07:17:30.089Z,688
2018-11-13T07:18:39.190Z,808
2018-11-13T07:19:48.945Z,920
2018-11-13T07:20:59.370Z,1000
2018-11-13T07:22:09.081Z,1120
2018-11-13T07:23:19.037Z,1264
2018-11-13T07:24:28.747Z,1208
2018-11-13T07:25:38.086Z,1160
2018-11-13T07:26:47.780Z,1156
2018-11-13T07:27:57.777Z,1144
2018-11-13T07:29:07.396Z,1092
2018-11-13T07:30:17.097Z,1008
2018-11-13T07:31:27.219Z,924
2018-11-13T07:32:36.673Z,764
2018-11-13T07:33:46.488Z,648
2018-11-13T07:34:56.457Z,604
2018-11-13T07:36:06.635Z,628
2018-11-13T07:37:16.313Z,688
2018-11-13T07:38:26.288Z,708
2018-11-13T07:39:36.202Z,652
2018-11-13T07:40:45.974Z,584
2018-11-13T07:41:56.214Z,508
2018-11-13T07:43:05.689Z,468
2018-11-13T07:44:15.427Z,424
2018-11-13T07:45:24.642Z,580
2018-11-13T07:46:34.466Z,688
2018-11-13T07:47:45.331Z,764
2018-11-13T07:48:55.722Z,660
2018-11-13T07:50:05.684Z,636
2018-11-13T07:51:16.027Z,728
2018-11-13T07:52:26.365Z,928
2018-11-13T07:53:36.075Z,1104
2018-11-13T07:54:45.779Z,1224
2018-11-13T07:55:55.578Z,1344
2018-11-13T07:57:05.714Z,1552
2018-11-13T07:58:15.914Z,1528
2018-11-13T07:59:25.610Z,1488
2018-11-13T08:00:35.319Z,1428
2018-11-13T08:01:44.785Z,1352
2018-11-13T08:02:54.311Z,1328
2018-11-13T08:04:04.061Z,1276
2018-11-13T08:05:13.516Z,1132
2018-11-13T08:06:23.409Z,1052
2018-11-13T08:07:33.457Z,1036
2018-11-13T08:08:42.394Z,1116
2018-11-13T08:09:51.866Z,1144
2018-11-13T08:11:01.567Z,1072
2018-11-13T08:12:11.580Z,1160
2018-11-13T08:13:22.563Z,1320
2018-11-13T08:14:32.636Z,1444
2018-11-13T08:15:42.560Z,1412
2018-11-13T08:16:52.551Z,1316
2018-11-13T08:18:02.525Z,1248
2018-11-13T08:19:11.985Z,1204
2018-11-13T08:20:21.739Z,1260
2018-11-13T08:21:31.457Z,1364
2018-11-13T08:22:41.172Z,1356
2018-11-13T08:23:50.904Z,1336
2018-11-13T08:25:00.899Z,1300
2018-11-13T08:26:11.053Z,1352
2018-11-13T08:27:20.880Z,1404
2018-11-13T08:28:30.958Z,1572
2018-11-13T08:29:40.596Z,1748
2018-11-13T08:30:50.348Z,1968
2018-11-13T08:32:00.314Z,2236
2018-11-13T08:33:10.427Z,2500
2018-11-13T08:34:20.599Z,2640
2018-11-13T08:35:30.344Z,2688
2018-11-13T08:36:40.377Z,2648
2018-11-13T08:37:49.831Z,2532
2018-11-13T08:38:59.540Z,2516
2018-11-13T08:40:09.506Z,2652
2018-11-13T08:41:19.207Z,2744
2018-11-13T08:42:28.892Z,2888
2018-11-13T08:43:38.912Z,3028
2018-11-13T08:44:48.370Z,3108
2018-11-13T08:45:58.339Z,3140
2018-11-13T08:47:08.288Z,3224
2018-11-13T08:48:18.240Z,3208
2018-11-13T08:49:28.187Z,3072
2018-11-13T08:50:38.736Z,3008
2018-11-13T08:51:48.880Z,2964
2018-11-13T08:52:58.692Z,2876
2018-11-13T08:54:08.660Z,2748
2018-11-13T08:55:17.363Z,2604
2018-11-13T08:56:26.797Z,2560
2018-11-13T08:57:36.524Z,2584
2018-11-13T08:58:46.653Z,2552
2018-11-13T08:59:56.677Z,2624
2018-11-13T09:01:06.367Z,2604
2018-11-13T09:02:16.083Z,2608
2018-11-13T09:03:26.056Z,2492
2018-11-13T09:04:35.503Z,2440
2018-11-13T09:05:45.468Z,2396
2018-11-13T09:06:54.919Z,2396
2018-11-13T09:08:04.646Z,2372
2018-11-13T09:09:14.352Z,2256
2018-11-13T09:10:24.062Z,2396
2018-11-13T09:11:34.115Z,2660
2018-11-13T09:12:43.946Z,2816
2018-11-13T09:13:53.401Z,3040
2018-11-13T09:15:02.597Z,2968
2018-11-13T09:16:12.035Z,2948
2018-11-13T09:17:21.468Z,2652
2018-11-13T09:18:30.439Z,2472
2018-11-13T09:19:41.852Z,2488
2018-11-13T09:20:51.378Z,2596
2018-11-13T09:22:00.572Z,2396
2018-11-13T09:23:10.015Z,2636
2018-11-13T09:24:19.740Z,2148
2018-11-13T09:25:28.979Z,1940
2018-11-13T09:26:38.414Z,2100
2018-11-13T09:27:48.443Z,1676
2018-11-13T09:28:57.965Z,1752
2018-11-13T09:30:07.783Z,1892
2018-11-13T09:31:18.481Z,2140
2018-11-13T09:32:28.323Z,2536
2018-11-13T09:33:38.012Z,2512
2018-11-13T09:34:47.466Z,2368
2018-11-13T09:35:57.558Z,3092
2018-11-13T09:37:07.038Z,3776
2018-11-13T09:38:16.738Z,3876
2018-11-13T09:39:26.968Z,3860
2018-11-13T09:40:36.957Z,3932
2018-11-13T09:41:46.679Z,3724
2018-11-13T09:42:56.429Z,3472
2018-11-13T09:44:05.907Z,3992
2018-11-13T09:45:15.373Z,4420
2018-11-13T09:46:25.243Z,4172
2018-11-13T09:47:34.880Z,4180
2018-11-13T09:48:44.526Z,4036
2018-11-13T09:49:54.520Z,4004
2018-11-13T09:51:04.480Z,4080
2018-11-13T09:52:13.922Z,4112
2018-11-13T09:53:23.965Z,4572
2018-11-13T09:54:33.884Z,4760
2018-11-13T09:55:43.633Z,4704
2018-11-13T09:56:53.347Z,4804
2018-11-13T09:58:03.087Z,4896
2018-11-13T09:59:13.065Z,5176
2018-11-13T10:00:23.299Z,5820
2018-11-13T10:01:34.728Z,5604
2018-11-13T10:02:45.877Z,5848
2018-11-13T10:04:01.089Z,5916
2018-11-13T10:05:15.322Z,6204
2018-11-13T10:06:25.324Z,6112
2018-11-13T10:07:35.274Z,5996
2018-11-13T10:08:45.248Z,5632
2018-11-13T10:09:55.210Z,5124
2018-11-13T10:11:04.649Z,5044
2018-11-13T10:12:14.624Z,4516
2018-11-13T10:13:24.340Z,4604
2018-11-13T10:14:34.028Z,4796
2018-11-13T10:15:43.483Z,4988
2018-11-13T10:16:52.918Z,5208
2018-11-13T10:18:03.673Z,5424
2018-11-13T10:19:13.831Z,5460
2018-11-13T10:20:23.523Z,4936
2018-11-13T10:21:33.232Z,4312
2018-11-13T10:22:43.184Z,3596
2018-11-13T10:23:52.637Z,3184
2018-11-13T10:25:02.598Z,3444
2018-11-13T10:26:12.432Z,4044
2018-11-13T10:27:22.139Z,4136
2018-11-13T10:28:31.565Z,4420
2018-11-13T10:29:41.525Z,4644
2018-11-13T10:30:51.549Z,4308
2018-11-13T10:32:01.286Z,4356
2018-11-13T10:33:11.286Z,5416
2018-11-13T10:34:21.244Z,5456
2018-11-13T10:35:30.720Z,5728
2018-11-13T10:36:40.180Z,5856
2018-11-13T10:37:49.856Z,5528
2018-11-13T10:38:59.556Z,5860
2018-11-13T10:40:08.965Z,6172
2018-11-13T10:41:18.875Z,5996
2018-11-13T10:42:28.680Z,5992
2018-11-13T10:43:38.637Z,6096
2018-11-13T10:44:48.329Z,5528
2018-11-13T10:45:58.045Z,3528
2018-11-13T10:47:07.800Z,3208
2018-11-13T10:48:17.804Z,3228
2018-11-13T10:49:27.491Z,3268
2018-11-13T10:50:37.545Z,3480
2018-11-13T10:51:47.231Z,3920
2018-11-13T10:52:56.963Z,4572
2018-11-13T10:54:06.691Z,4796
2018-11-13T10:55:16.400Z,4556
2018-11-13T10:56:26.011Z,5964
2018-11-13T10:57:35.521Z,7148
2018-11-13T10:58:44.711Z,6720
2018-11-13T10:59:54.425Z,5628
2018-11-13T11:01:04.405Z,5156
2018-11-13T11:02:14.284Z,5104
2018-11-13T11:03:24.373Z,5488
2018-11-13T11:04:34.660Z,5672
2018-11-13T11:05:44.364Z,5672
2018-11-13T11:06:54.111Z,5504
2018-11-13T11:08:04.080Z,5688
2018-11-13T11:09:13.857Z,6068
2018-11-13T11:10:23.810Z,6468
2018-11-13T11:11:34.362Z,6740
2018-11-13T11:12:44.510Z,6888
2018-11-13T11:13:55.435Z,7020
2018-11-13T11:15:05.252Z,7112
2018-11-13T11:16:14.924Z,6816
2018-11-13T11:17:24.658Z,5968
2018-11-13T11:18:34.498Z,5736
2018-11-13T11:19:44.528Z,5968
2018-11-13T11:20:54.522Z,6136
2018-11-13T11:22:04.510Z,5844
2018-11-13T11:23:14.241Z,5904
2018-11-13T11:24:24.288Z,5400
2018-11-13T11:25:34.743Z,5464
2018-11-13T11:26:44.452Z,5248
2018-11-13T11:27:54.409Z,4380
2018-11-13T11:29:04.188Z,4368
2018-11-13T11:30:13.901Z,4292
2018-11-13T11:31:23.890Z,4340
2018-11-13T11:32:33.654Z,4316
2018-11-13T11:33:43.709Z,4236
2018-11-13T11:34:53.411Z,4516
2018-11-13T11:36:02.600Z,4676
2018-11-13T11:37:12.321Z,5172
2018-11-13T11:38:22.052Z,4908
2018-11-13T11:39:31.516Z,5396
2018-11-13T11:40:41.501Z,5484
2018-11-13T11:41:50.957Z,5288
2018-11-13T11:43:00.915Z,5196
2018-11-13T11:44:11.155Z,5124
2018-11-13T11:45:20.121Z,5288
2018-11-13T11:46:29.879Z,5456
2018-11-13T11:47:39.849Z,5748
2018-11-13T11:48:49.828Z,5640
2018-11-13T11:49:59.276Z,5500
2018-11-13T11:51:09.247Z,5140
2018-11-13T11:52:18.988Z,5152
2018-11-13T11:53:28.443Z,4888
2018-11-13T11:54:38.161Z,4668
2018-11-13T11:55:47.883Z,4324
2018-11-13T11:56:57.909Z,3800
2018-11-13T11:58:08.096Z,3440
2018-11-13T11:59:17.853Z,3324
2018-11-13T12:00:27.626Z,3464
2018-11-13T12:01:37.452Z,3380
2018-11-13T12:02:46.885Z,3192
2018-11-13T12:03:56.615Z,3168
2018-11-13T12:05:06.580Z,3276
2018-11-13T12:06:16.043Z,3660
2018-11-13T12:07:25.771Z,3904
2018-11-13T12:08:35.220Z,3844
2018-11-13T12:09:44.916Z,3692
2018-11-13T12:10:54.366Z,3900
2018-11-13T12:12:04.173Z,4440
2018-11-13T12:13:13.318Z,4952
2018-11-13T12:14:22.770Z,5536
2018-11-13T12:15:32.468Z,5952
2018-11-13T12:16:42.295Z,6196
2018-11-13T12:17:52.306Z,7108
2018-11-13T12:19:02.619Z,8704
2018-11-13T12:20:12.358Z,10628
2018-11-13T12:21:21.807Z,12552
2018-11-13T12:22:31.329Z,14772
2018-11-13T12:23:41.305Z,23552
2018-11-13T12:24:51.038Z,48416
2018-11-13T12:26:01.332Z,58432
2018-11-13T12:27:10.797Z,52288
2018-11-13T12:28:20.725Z,27648
2018-11-13T12:29:30.251Z,25376
2018-11-13T12:30:39.962Z,23328
2018-11-13T12:31:49.679Z,28384
2018-11-13T12:32:59.632Z,26272
2018-11-13T12:34:09.623Z,23936
2018-11-13T12:35:19.075Z,27584
2018-11-13T12:36:28.838Z,39360
2018-11-13T12:37:38.809Z,50400
2018-11-13T12:38:48.516Z,44736
2018-11-13T12:39:57.984Z,55200
2018-11-13T12:41:07.883Z,34656
2018-11-13T12:42:17.328Z,22304
2018-11-13T12:43:27.566Z,20352
2018-11-13T12:44:37.003Z,18880
2018-11-13T12:45:46.701Z,18560
2018-11-13T12:46:58.343Z,21920
2018-11-13T12:48:07.532Z,39040
2018-11-13T12:49:19.966Z,47200
2018-11-13T12:50:29.737Z,26176
2018-11-13T12:51:39.458Z,30624
2018-11-13T12:52:48.912Z,25280
2018-11-13T12:54:00.814Z,47200
2018-11-13T12:55:10.516Z,19584
2018-11-13T12:56:20.825Z,17312
2018-11-13T12:57:30.906Z,20448
2018-11-13T12:58:40.700Z,18976
2018-11-13T12:59:50.701Z,16152
2018-11-13T13:01:00.421Z,18944
2018-11-13T13:02:12.021Z,19360
2018-11-13T13:03:21.428Z,18848
2018-11-13T13:04:31.155Z,21536
2018-11-13T13:05:40.863Z,30976
2018-11-13T13:06:50.569Z,21024
2018-11-13T13:08:00.328Z,26976
2018-11-13T13:09:09.785Z,21312
2018-11-13T13:10:19.220Z,18496
2018-11-13T13:11:28.665Z,17248
2018-11-13T13:12:38.645Z,15464
2018-11-13T13:13:48.347Z,16288
2018-11-13T13:14:58.715Z,15984
2018-11-13T13:16:08.893Z,15560
2018-11-13T13:17:18.598Z,17440
2018-11-13T13:18:28.573Z,19872
2018-11-13T13:19:38.301Z,23936
2018-11-13T13:20:47.750Z,29696
2018-11-13T13:21:57.484Z,65856
2018-11-13T13:23:06.934Z,67712
2018-11-13T13:24:16.384Z,62624
2018-11-13T13:25:26.109Z,21184
2018-11-13T13:26:36.080Z,57216
2018-11-13T13:27:45.773Z,55776
2018-11-13T13:28:55.487Z,18912
2018-11-13T13:30:04.680Z,15732
2018-11-13T13:31:14.399Z,14864
2018-11-13T13:32:23.849Z,15176
2018-11-13T13:33:33.863Z,17600
2018-11-13T13:34:43.558Z,37536
2018-11-13T13:35:53.512Z,50752
2018-11-13T13:37:03.216Z,26624
2018-11-13T13:38:13.194Z,20736
2018-11-13T13:39:22.923Z,21184
2018-11-13T13:40:32.908Z,21632
2018-11-13T13:41:42.349Z,19488
2018-11-13T13:42:51.533Z,26624
2018-11-13T13:44:01.268Z,21792
2018-11-13T13:45:11.243Z,12212
2018-11-13T13:46:21.043Z,10172
2018-11-13T13:47:30.726Z,9236
2018-11-13T13:48:40.417Z,8216
2018-11-13T13:49:50.124Z,6588
2018-11-13T13:50:59.832Z,4380
2018-11-13T13:52:09.284Z,3612
2018-11-13T13:53:18.992Z,3196
2018-11-13T13:54:29.070Z,2624
2018-11-13T13:55:39.089Z,2872
2018-11-13T13:56:48.542Z,3572
2018-11-13T13:57:57.736Z,4160
2018-11-13T13:59:07.449Z,4500
2018-11-13T14:00:17.406Z,4120
2018-11-13T14:01:27.120Z,3568
2018-11-13T14:02:37.085Z,3068
2018-11-13T14:03:47.972Z,3180
2018-11-13T14:04:57.707Z,3860
2018-11-13T14:06:08.144Z,4084
2018-11-13T14:07:18.366Z,9332
2018-11-13T14:08:28.158Z,4796
2018-11-13T14:09:37.955Z,9692
2018-11-13T14:10:47.409Z,9076
2018-11-13T14:11:56.839Z,6272
2018-11-13T14:13:06.280Z,5568
2018-11-13T14:14:16.234Z,5016
2018-11-13T14:15:26.792Z,5976
2018-11-13T14:16:36.917Z,7640
2018-11-13T14:17:46.349Z,8084
2018-11-13T14:18:56.049Z,7336
2018-11-13T14:20:06.038Z,6364
2018-11-13T14:21:16.296Z,5656
2018-11-13T14:22:25.993Z,5184
2018-11-13T14:23:35.763Z,4784
2018-11-13T14:24:45.726Z,4428
2018-11-13T14:25:55.412Z,4256
2018-11-13T14:27:05.112Z,4512
2018-11-13T14:28:15.091Z,5208
2018-11-13T14:29:24.810Z,5884
2018-11-13T14:30:34.837Z,5928
2018-11-13T14:31:44.526Z,5588
2018-11-13T14:32:54.221Z,7108
2018-11-13T14:34:04.184Z,4932
2018-11-13T14:35:13.872Z,4520
2018-11-13T14:36:23.650Z,4792
2018-11-13T14:37:33.611Z,8144
2018-11-13T14:38:43.316Z,5120
2018-11-13T14:39:53.012Z,4448
2018-11-13T14:41:02.464Z,4580
2018-11-13T14:42:12.165Z,4548
2018-11-13T14:43:22.142Z,4120
2018-11-13T14:44:31.864Z,3544
2018-11-13T14:45:41.900Z,3384
2018-11-13T14:46:51.366Z,3020
2018-11-13T14:48:01.073Z,2724
2018-11-13T14:49:10.812Z,2568
2018-11-13T14:50:20.264Z,2460
2018-11-13T14:51:30.216Z,2360
2018-11-13T14:52:39.902Z,2260
2018-11-13T14:53:49.359Z,2148
2018-11-13T14:54:59.318Z,2024
2018-11-13T14:56:09.280Z,1900
2018-11-13T14:57:19.252Z,1796
2018-11-13T14:58:29.206Z,1704
2018-11-13T14:59:38.659Z,1604
2018-11-13T15:00:48.676Z,1480
2018-11-13T15:01:58.398Z,1360
2018-11-13T15:03:07.843Z,1276
2018-11-13T15:04:17.558Z,1192
2018-11-13T15:05:27.006Z,1068
2018-11-13T15:06:36.980Z,940
2018-11-13T15:07:46.891Z,824
2018-11-13T15:08:56.975Z,708
2018-11-13T15:10:07.456Z,596
2018-11-13T15:11:17.155Z,512
2018-11-13T15:12:26.335Z,456
2018-11-13T15:13:36.370Z,408
2018-11-13T15:14:46.095Z,352
2018-11-13T15:15:55.817Z,304
2018-11-13T15:17:05.255Z,256
2018-11-13T15:18:15.214Z,212
2018-11-13T15:19:24.920Z,176
2018-11-13T15:20:34.353Z,148
2018-11-13T15:21:44.364Z,128
2018-11-13T15:22:53.544Z,112
2018-11-13T15:24:03.254Z,100
2018-11-13T15:25:12.965Z,84
2018-11-13T15:26:22.699Z,60
2018-11-13T15:27:32.389Z,44
2018-11-13T15:28:42.090Z,36
2018-11-13T15:29:51.785Z,24
2018-11-13T15:31:01.586Z,20
2018-11-13T15:32:13.000Z,12
2018-11-13T15:33:22.445Z,8
2018-11-13T15:34:32.395Z,4
2018-11-13T15:35:41.822Z,4
2018-11-13T15:36:52.572Z,4
2018-11-13T15:38:02.282Z,0
2018-11-13T15:39:12.229Z,0
2018-11-13T15:40:22.189Z,4
2018-11-13T15:41:31.941Z,0
2018-11-13T15:42:43.368Z,4
2018-11-13T15:43:52.800Z,4
2018-11-13T15:45:02.773Z,4
2018-11-13T15:46:12.930Z,4
2018-11-13T15:47:22.894Z,0
2018-11-13T15:48:32.847Z,4
2018-11-13T15:49:42.021Z,0
2018-11-13T15:50:51.987Z,4
2018-11-13T15:52:01.976Z,0
2018-11-13T15:53:11.767Z,0
2018-11-13T15:54:21.743Z,0
2018-11-13T15:55:31.184Z,0
2018-11-13T15:56:40.883Z,0
2018-11-13T15:57:50.317Z,0
2018-11-13T15:58:59.758Z,0
2018-11-13T16:00:09.758Z,0
2018-11-13T16:01:18.962Z,0
2018-11-13T16:02:28.653Z,0
2018-11-13T16:03:38.371Z,0
2018-11-13T16:04:47.553Z,0
2018-11-13T16:05:57.251Z,0
2018-11-13T16:07:06.693Z,0
2018-11-13T16:08:16.228Z,0
2018-11-13T16:09:25.716Z,0
2018-11-13T16:10:35.456Z,0
2018-11-13T16:11:44.654Z,0